Time;durP1;ratioP1;P1;durP2;ratioP2;P2;SDS_P1;SDS_P2;PMS_P1;PMS_P2;Temp;Humidity;BMP_temperature;BMP_pressure;BME280_temperature;BME280_humidity;BME280_pressure;Samples;Min_cycle;Max_cycle;Signal;HPM_P1;HPM_P2
2022/08/01 00:00:26;;;;;;;8.48;5.57;;;;;;;;;;5122302;27;20035;-56
2022/08/01 00:02:52;;;;;;;8.13;5.32;;;;;;;;;;5116664;27;20166;-56
2022/08/01 00:05:18;;;;;;;11.23;5.63;;;;;;;;;;5126360;27;20057;-56
2022/08/01 00:07:44;;;;;;;7.45;5.13;;;;;;;;;;5101785;27;20047;-56
2022/08/01 00:10:12;;;;;;;12.90;5.53;;;;;;;;;;5126701;27;20468;-56
2022/08/01 00:12:39;;;;;;;11.35;6.15;;;;;;;;;;5120693;27;20152;-55
2022/08/01 00:15:07;;;;;;;7.97;5.43;;;;;;;;;;5122704;27;20068;-56
2022/08/01 00:17:33;;;;;;;8.55;5.50;;;;;;;;;;5128381;27;20474;-56
2022/08/01 00:19:59;;;;;;;8.50;4.75;;;;;;;;;;5128438;27;20093;-56
2022/08/01 00:22:25;;;;;;;12.10;5.00;;;;;;;;;;5122527;27;20083;-56
2022/08/01 00:24:52;;;;;;;12.50;5.30;;;;;;;;;;5117446;27;20043;-56
2022/08/01 00:27:18;;;;;;;11.88;4.88;;;;;;;;;;5123256;27;20053;-56
2022/08/01 00:29:44;;;;;;;12.48;5.10;;;;;;;;;;5126264;27;20082;-56
2022/08/01 00:32:10;;;;;;;13.55;6.38;;;;;;;;;;5121105;27;20140;-56
2022/08/01 00:34:36;;;;;;;13.00;5.68;;;;;;;;;;5125488;27;20042;-56
2022/08/01 00:37:03;;;;;;;9.00;5.13;;;;;;;;;;5118503;27;20058;-56
2022/08/01 00:39:29;;;;;;;11.73;4.88;;;;;;;;;;5098467;27;20042;-56
2022/08/01 00:41:55;;;;;;;8.13;3.65;;;;;;;;;;5116414;27;20083;-56
2022/08/01 00:44:21;;;;;;;8.95;3.20;;;;;;;;;;5119342;27;20531;-56
2022/08/01 00:46:47;;;;;;;9.32;3.08;;;;;;;;;;5099953;27;20046;-56
2022/08/01 00:49:13;;;;;;;12.27;3.45;;;;;;;;;;5117918;27;20512;-56
2022/08/01 00:51:40;;;;;;;5.25;2.60;;;;;;;;;;5100530;27;20047;-56
2022/08/01 00:54:06;;;;;;;11.60;2.60;;;;;;;;;;5116726;27;20066;-56
2022/08/01 00:56:32;;;;;;;5.43;2.22;;;;;;;;;;5117460;27;20054;-56
2022/08/01 00:58:58;;;;;;;16.77;2.97;;;;;;;;;;5111462;27;20070;-56
2022/08/01 01:01:26;;;;;;;6.15;2.50;;;;;;;;;;5115522;27;20175;-56
2022/08/01 01:03:53;;;;;;;10.18;1.95;;;;;;;;;;5116624;27;20046;-56
2022/08/01 01:06:24;;;;;;;11.50;2.30;;;;;;;;;;5121666;27;20044;-56
2022/08/01 01:08:55;;;;;;;6.10;2.30;;;;;;;;;;5122900;27;20043;-56
2022/08/01 01:11:25;;;;;;;9.27;2.53;;;;;;;;;;5119676;27;20043;-56
2022/08/01 01:13:54;;;;;;;12.80;2.58;;;;;;;;;;5123954;27;20535;-56
2022/08/01 01:16:21;;;;;;;5.43;2.42;;;;;;;;;;5121328;27;20123;-56
2022/08/01 01:18:50;;;;;;;6.55;2.80;;;;;;;;;;5106395;27;20046;-56
2022/08/01 01:21:17;;;;;;;8.30;2.60;;;;;;;;;;5125296;27;20038;-56
2022/08/01 01:24:02;;;;;;;8.23;2.80;;;;;;;;;;5124573;27;20047;-56
2022/08/01 01:26:28;;;;;;;7.40;3.05;;;;;;;;;;5126585;27;20051;-56
2022/08/01 01:29:00;;;;;;;10.40;2.90;;;;;;;;;;5123120;27;20047;-56
2022/08/01 01:31:27;;;;;;;7.18;2.97;;;;;;;;;;5117681;27;20070;-56
2022/08/01 01:33:54;;;;;;;13.70;3.97;;;;;;;;;;5116306;27;20047;-56
2022/08/01 01:36:22;;;;;;;14.65;4.70;;;;;;;;;;5122225;27;20039;-56
2022/08/01 01:38:48;;;;;;;20.52;4.75;;;;;;;;;;5123372;27;20039;-56
2022/08/01 01:41:16;;;;;;;23.60;5.05;;;;;;;;;;5118926;27;20491;-56
2022/08/01 01:43:43;;;;;;;18.83;5.15;;;;;;;;;;5120272;27;20047;-56
2022/08/01 01:46:10;;;;;;;12.90;4.20;;;;;;;;;;5105465;27;20126;-56
2022/08/01 01:48:36;;;;;;;23.10;5.03;;;;;;;;;;5124697;27;20134;-56
2022/08/01 01:51:03;;;;;;;21.95;4.40;;;;;;;;;;5129489;27;20509;-56
2022/08/01 01:53:32;;;;;;;24.13;4.55;;;;;;;;;;5107674;27;20062;-56
2022/08/01 01:55:59;;;;;;;16.58;3.83;;;;;;;;;;5133199;27;20069;-56
2022/08/01 01:58:26;;;;;;;14.05;3.10;;;;;;;;;;5114416;27;20081;-55
2022/08/01 02:00:55;;;;;;;13.75;4.03;;;;;;;;;;5131197;27;20485;-56
2022/08/01 02:03:22;;;;;;;18.45;3.60;;;;;;;;;;5128250;27;20636;-56
2022/08/01 02:05:49;;;;;;;14.23;3.28;;;;;;;;;;5131791;27;20046;-56
2022/08/01 02:08:16;;;;;;;12.98;3.60;;;;;;;;;;5130208;27;20047;-56
2022/08/01 02:11:17;;;;;;;10.85;3.83;;;;;;;;;;5121272;27;20070;-56
2022/08/01 02:13:30;;;;;;;13.15;3.38;;;;;;;;;;5128239;27;20194;-56
2022/08/01 02:15:57;;;;;;;14.38;3.63;;;;;;;;;;5114980;27;20062;-56
2022/08/01 02:18:23;;;;;;;9.10;3.10;;;;;;;;;;5131562;27;20660;-56
2022/08/01 02:20:50;;;;;;;13.20;3.40;;;;;;;;;;5124966;27;20047;-56
2022/08/01 02:23:17;;;;;;;17.23;3.60;;;;;;;;;;5121501;27;20051;-56
2022/08/01 02:25:46;;;;;;;19.85;4.40;;;;;;;;;;5131052;27;20068;-56
2022/08/01 02:28:16;;;;;;;18.52;3.88;;;;;;;;;;5120985;27;20031;-56
2022/08/01 02:30:44;;;;;;;14.73;3.85;;;;;;;;;;5127399;27;20070;-56
2022/08/01 02:33:19;;;;;;;16.85;4.22;;;;;;;;;;5123248;27;20074;-56
2022/08/01 02:35:47;;;;;;;15.75;3.85;;;;;;;;;;5118378;27;20043;-56
2022/08/01 02:38:14;;;;;;;12.30;3.92;;;;;;;;;;5120795;27;20030;-56
2022/08/01 02:40:43;;;;;;;17.92;4.40;;;;;;;;;;5120456;27;20131;-56
2022/08/01 02:43:10;;;;;;;13.23;3.80;;;;;;;;;;5100032;27;20138;-56
2022/08/01 02:45:38;;;;;;;13.00;3.78;;;;;;;;;;5124417;27;20054;-56
2022/08/01 02:48:08;;;;;;;16.45;5.07;;;;;;;;;;5121240;27;21028;-56
2022/08/01 02:50:35;;;;;;;12.93;4.38;;;;;;;;;;5120692;27;20534;-56
2022/08/01 02:53:02;;;;;;;16.35;4.47;;;;;;;;;;5123239;27;20050;-56
2022/08/01 02:55:31;;;;;;;21.35;4.30;;;;;;;;;;5119806;27;20040;-56
2022/08/01 02:57:58;;;;;;;14.63;3.85;;;;;;;;;;5120571;27;20407;-57
2022/08/01 03:00:25;;;;;;;15.07;3.80;;;;;;;;;;5119360;27;20095;-56
2022/08/01 03:02:54;;;;;;;16.67;4.53;;;;;;;;;;5110031;27;20076;-56
2022/08/01 03:05:21;;;;;;;19.73;4.60;;;;;;;;;;5106987;27;20053;-56
2022/08/01 03:07:47;;;;;;;18.05;5.15;;;;;;;;;;5106340;27;20051;-56
2022/08/01 03:10:15;;;;;;;25.48;5.28;;;;;;;;;;5125579;27;20138;-56
2022/08/01 03:12:42;;;;;;;16.52;4.85;;;;;;;;;;5124569;27;20845;-56
2022/08/01 03:15:09;;;;;;;17.67;5.15;;;;;;;;;;5126746;27;20031;-56
2022/08/01 03:17:37;;;;;;;23.73;5.85;;;;;;;;;;5122847;27;20054;-56
2022/08/01 03:20:04;;;;;;;25.98;5.20;;;;;;;;;;5105248;27;20130;-56
2022/08/01 03:22:32;;;;;;;16.58;4.78;;;;;;;;;;5097849;27;20043;-56
2022/08/01 03:24:59;;;;;;;22.98;5.53;;;;;;;;;;5117513;27;20107;-56
2022/08/01 03:27:26;;;;;;;16.17;4.78;;;;;;;;;;5121351;27;20054;-56
2022/08/01 03:29:53;;;;;;;22.08;5.47;;;;;;;;;;5121843;27;20126;-56
2022/08/01 03:32:20;;;;;;;19.83;5.25;;;;;;;;;;5099868;27;20057;-57
2022/08/01 03:34:47;;;;;;;26.38;5.72;;;;;;;;;;5104040;27;20039;-56
2022/08/01 03:37:16;;;;;;;22.88;5.72;;;;;;;;;;5121305;27;20411;-56
2022/08/01 03:39:46;;;;;;;22.27;5.05;;;;;;;;;;5125170;27;20066;-56
2022/08/01 03:42:16;;;;;;;18.80;4.97;;;;;;;;;;5125235;27;20138;-56
2022/08/01 03:44:48;;;;;;;19.63;4.97;;;;;;;;;;5128100;27;20034;-56
2022/08/01 03:47:15;;;;;;;21.50;4.75;;;;;;;;;;5122174;27;20130;-56
2022/08/01 03:49:43;;;;;;;23.85;4.65;;;;;;;;;;5124345;27;20051;-56
2022/08/01 03:52:10;;;;;;;22.65;5.20;;;;;;;;;;5114308;27;20592;-56
2022/08/01 03:54:40;;;;;;;17.13;3.83;;;;;;;;;;5119192;27;20043;-55
2022/08/01 03:57:06;;;;;;;18.50;3.67;;;;;;;;;;5082439;27;21717;-56
2022/08/01 03:59:36;;;;;;;15.98;3.75;;;;;;;;;;5121625;27;20034;-56
2022/08/01 04:02:02;;;;;;;19.33;3.70;;;;;;;;;;5125839;27;20467;-56
2022/08/01 04:04:29;;;;;;;15.43;3.35;;;;;;;;;;5127156;27;20104;-57
2022/08/01 04:06:55;;;;;;;17.58;3.92;;;;;;;;;;5125900;27;20053;-56
2022/08/01 04:09:22;;;;;;;22.00;4.30;;;;;;;;;;5107617;27;20070;-56
2022/08/01 04:11:48;;;;;;;21.75;4.80;;;;;;;;;;5127473;27;21028;-56
2022/08/01 04:14:15;;;;;;;24.58;4.43;;;;;;;;;;5120115;27;20071;-56
2022/08/01 04:16:41;;;;;;;18.55;3.22;;;;;;;;;;5097102;27;20076;-56
2022/08/01 04:19:07;;;;;;;22.13;4.53;;;;;;;;;;5094825;28;20054;-56
2022/08/01 04:21:34;;;;;;;20.95;3.22;;;;;;;;;;5094045;27;20047;-55
2022/08/01 04:24:04;;;;;;;13.73;3.28;;;;;;;;;;5093817;28;20058;-56
2022/08/01 04:26:33;;;;;;;14.40;3.60;;;;;;;;;;5091928;27;20082;-56
2022/08/01 04:29:01;;;;;;;17.75;3.92;;;;;;;;;;5095194;27;20073;-56
2022/08/01 04:31:27;;;;;;;21.58;3.45;;;;;;;;;;5096674;27;20070;-56
2022/08/01 04:33:55;;;;;;;20.50;4.63;;;;;;;;;;5098634;28;20047;-56
2022/08/01 04:36:23;;;;;;;20.85;4.03;;;;;;;;;;5097046;28;20043;-56
2022/08/01 04:38:51;;;;;;;29.67;5.45;;;;;;;;;;5099050;28;20066;-56
2022/08/01 04:41:18;;;;;;;19.17;4.13;;;;;;;;;;5097729;28;20116;-56
2022/08/01 04:43:44;;;;;;;22.20;4.00;;;;;;;;;;5100121;28;20142;-56
2022/08/01 04:46:11;;;;;;;10.82;2.83;;;;;;;;;;5096159;27;20052;-57
2022/08/01 04:48:38;;;;;;;22.35;4.22;;;;;;;;;;5095138;28;20108;-56
2022/08/01 04:51:05;;;;;;;17.17;3.38;;;;;;;;;;5096839;28;20047;-56
2022/08/01 04:53:32;;;;;;;16.88;3.70;;;;;;;;;;5094601;28;20039;-56
2022/08/01 04:55:58;;;;;;;16.23;3.45;;;;;;;;;;5096478;28;20098;-56
2022/08/01 04:58:24;;;;;;;19.40;4.10;;;;;;;;;;5098754;28;20035;-56
2022/08/01 05:00:50;;;;;;;17.45;3.90;;;;;;;;;;5096489;28;20138;-56
2022/08/01 05:03:17;;;;;;;19.67;3.60;;;;;;;;;;5095675;28;20043;-56
2022/08/01 05:05:43;;;;;;;13.95;3.58;;;;;;;;;;5094901;28;20549;-57
2022/08/01 05:08:09;;;;;;;19.13;4.32;;;;;;;;;;5094659;28;20159;-56
2022/08/01 05:10:36;;;;;;;15.25;3.60;;;;;;;;;;5096312;28;20039;-57
2022/08/01 05:13:02;;;;;;;20.23;4.22;;;;;;;;;;5094283;28;20101;-56
2022/08/01 05:15:28;;;;;;;18.73;3.25;;;;;;;;;;5090292;28;20055;-56
2022/08/01 05:17:54;;;;;;;21.10;4.15;;;;;;;;;;5122076;27;20079;-56
2022/08/01 05:20:21;;;;;;;18.30;3.40;;;;;;;;;;5125813;27;20039;-56
2022/08/01 05:22:47;;;;;;;23.25;4.43;;;;;;;;;;5105322;27;20055;-56
2022/08/01 05:25:13;;;;;;;20.60;3.92;;;;;;;;;;5122783;27;20056;-56
2022/08/01 05:27:40;;;;;;;17.95;4.22;;;;;;;;;;5123974;27;20482;-56
2022/08/01 05:30:07;;;;;;;23.77;3.80;;;;;;;;;;5122004;27;20047;-56
2022/08/01 05:32:34;;;;;;;23.90;4.65;;;;;;;;;;5119682;27;20079;-56
2022/08/01 05:35:00;;;;;;;19.35;3.63;;;;;;;;;;5118120;27;20047;-56
2022/08/01 05:37:26;;;;;;;21.55;4.30;;;;;;;;;;5120207;27;20042;-56
2022/08/01 05:39:52;;;;;;;25.67;4.57;;;;;;;;;;5120430;27;20047;-56
2022/08/01 05:42:18;;;;;;;20.67;5.22;;;;;;;;;;5102015;27;20046;-56
2022/08/01 05:44:45;;;;;;;17.40;3.88;;;;;;;;;;5121870;27;20209;-55
2022/08/01 05:47:11;;;;;;;20.65;4.05;;;;;;;;;;5123454;27;20138;-56
2022/08/01 05:49:37;;;;;;;18.40;3.95;;;;;;;;;;5124283;27;20419;-56
2022/08/01 05:52:04;;;;;;;19.60;3.33;;;;;;;;;;5121094;27;20095;-56
2022/08/01 05:54:31;;;;;;;21.20;3.95;;;;;;;;;;5120471;27;20036;-56
2022/08/01 05:57:01;;;;;;;15.02;3.38;;;;;;;;;;5121364;27;20098;-56
2022/08/01 05:59:27;;;;;;;24.38;4.38;;;;;;;;;;5124575;27;20055;-57
2022/08/01 06:01:54;;;;;;;18.27;4.68;;;;;;;;;;5121588;27;20039;-56
2022/08/01 06:04:20;;;;;;;16.35;3.20;;;;;;;;;;5119780;27;20043;-56
2022/08/01 06:06:46;;;;;;;21.52;4.30;;;;;;;;;;5120968;27;20135;-56
2022/08/01 06:09:12;;;;;;;22.42;5.28;;;;;;;;;;5129620;27;20478;-56
2022/08/01 06:11:38;;;;;;;18.02;3.63;;;;;;;;;;5132446;27;20055;-57
2022/08/01 06:14:04;;;;;;;20.10;3.78;;;;;;;;;;5133994;27;20035;-56
2022/08/01 06:16:31;;;;;;;24.70;5.20;;;;;;;;;;5125788;27;20058;-56
2022/08/01 06:18:57;;;;;;;20.58;3.90;;;;;;;;;;5127670;27;20035;-56
2022/08/01 06:21:23;;;;;;;18.80;4.07;;;;;;;;;;5126683;27;20039;-56
2022/08/01 06:23:49;;;;;;;16.58;3.83;;;;;;;;;;5130170;27;20031;-57
2022/08/01 06:26:18;;;;;;;22.15;4.43;;;;;;;;;;5127404;27;20493;-57
2022/08/01 06:28:44;;;;;;;18.20;3.63;;;;;;;;;;5126954;27;20043;-57
2022/08/01 06:31:12;;;;;;;20.15;4.25;;;;;;;;;;5129468;27;20039;-56
2022/08/01 06:33:38;;;;;;;18.13;3.38;;;;;;;;;;5109729;27;20047;-57
2022/08/01 06:36:04;;;;;;;16.30;3.58;;;;;;;;;;5129945;27;20043;-57
2022/08/01 06:38:31;;;;;;;19.38;3.38;;;;;;;;;;5125912;27;20121;-57
2022/08/01 06:40:57;;;;;;;25.10;4.43;;;;;;;;;;5129944;27;20047;-57
2022/08/01 06:43:23;;;;;;;31.42;4.00;;;;;;;;;;5127151;27;20043;-57
2022/08/01 06:45:49;;;;;;;18.10;4.05;;;;;;;;;;5126235;27;20138;-59
2022/08/01 06:48:15;;;;;;;17.08;4.32;;;;;;;;;;5125450;27;20031;-60
2022/08/01 06:50:42;;;;;;;21.00;3.80;;;;;;;;;;5134771;27;20043;-65
2022/08/01 06:53:08;;;;;;;15.15;3.65;;;;;;;;;;5132743;27;20123;-60
2022/08/01 06:55:34;;;;;;;14.00;3.33;;;;;;;;;;5131318;27;20042;-60
2022/08/01 06:58:00;;;;;;;18.02;3.08;;;;;;;;;;5135477;27;20484;-60
2022/08/01 07:00:27;;;;;;;15.13;2.97;;;;;;;;;;5132267;27;20058;-59
2022/08/01 07:02:53;;;;;;;13.75;2.70;;;;;;;;;;5128459;27;20119;-59
2022/08/01 07:05:20;;;;;;;23.55;4.25;;;;;;;;;;5130654;27;20134;-60
2022/08/01 07:07:46;;;;;;;23.60;4.43;;;;;;;;;;5111213;27;20134;-59
2022/08/01 07:10:12;;;;;;;14.13;3.22;;;;;;;;;;5127258;27;20035;-59
2022/08/01 07:12:40;;;;;;;15.30;3.47;;;;;;;;;;5130460;27;20047;-59
2022/08/01 07:15:07;;;;;;;17.30;2.75;;;;;;;;;;5128764;27;20114;-59
2022/08/01 07:17:36;;;;;;;18.92;3.40;;;;;;;;;;5130404;27;20043;-60
2022/08/01 07:20:03;;;;;;;16.55;3.00;;;;;;;;;;5128993;27;20035;-60
2022/08/01 07:22:29;;;;;;;14.00;2.67;;;;;;;;;;5124976;27;20074;-62
2022/08/01 07:24:55;;;;;;;14.10;3.40;;;;;;;;;;5131675;27;20071;-62
2022/08/01 07:27:21;;;;;;;18.05;3.72;;;;;;;;;;5119912;27;20455;-62
2022/08/01 07:29:47;;;;;;;15.23;2.92;;;;;;;;;;5131678;27;20067;-59
2022/08/01 07:32:14;;;;;;;18.70;3.38;;;;;;;;;;5135652;27;20082;-59
2022/08/01 07:34:40;;;;;;;13.82;3.17;;;;;;;;;;5131544;27;20055;-60
2022/08/01 07:37:06;;;;;;;16.58;3.05;;;;;;;;;;5131333;27;20049;-59
2022/08/01 07:39:32;;;;;;;15.70;2.58;;;;;;;;;;5136550;27;20331;-59
2022/08/01 07:41:58;;;;;;;14.38;2.65;;;;;;;;;;5114788;27;20043;-59
2022/08/01 07:44:25;;;;;;;16.85;2.60;;;;;;;;;;5121504;27;20529;-59
2022/08/01 07:46:51;;;;;;;16.92;2.20;;;;;;;;;;5124728;27;20433;-59
2022/08/01 07:49:17;;;;;;;15.32;3.22;;;;;;;;;;5107616;27;20070;-60
2022/08/01 07:51:43;;;;;;;17.63;4.00;;;;;;;;;;5137521;27;20453;-59
2022/08/01 07:54:09;;;;;;;12.13;3.03;;;;;;;;;;5136621;27;20035;-59
2022/08/01 07:56:35;;;;;;;15.30;2.65;;;;;;;;;;5132422;27;20169;-59
2022/08/01 07:59:02;;;;;;;17.95;2.55;;;;;;;;;;5129163;27;20126;-60
2022/08/01 08:01:28;;;;;;;13.35;2.25;;;;;;;;;;5132549;27;20042;-60
2022/08/01 08:03:54;;;;;;;10.02;2.47;;;;;;;;;;5130946;27;20051;-59
2022/08/01 08:06:21;;;;;;;17.65;2.67;;;;;;;;;;5132004;27;20039;-59
2022/08/01 08:08:47;;;;;;;17.02;2.25;;;;;;;;;;5120011;27;20117;-60
2022/08/01 08:11:14;;;;;;;17.02;2.65;;;;;;;;;;5116224;27;20035;-60
2022/08/01 08:13:40;;;;;;;13.02;2.47;;;;;;;;;;5131964;27;20042;-59
2022/08/01 08:16:06;;;;;;;18.33;3.17;;;;;;;;;;5130590;27;20050;-59
2022/08/01 08:18:32;;;;;;;16.08;2.97;;;;;;;;;;5125047;27;20053;-59
2022/08/01 08:20:59;;;;;;;13.63;2.38;;;;;;;;;;5120433;27;20047;-59
2022/08/01 08:26:10;;;;;;;15.40;2.92;;;;;;;;;;5125739;27;20426;-60
2022/08/01 08:28:36;;;;;;;12.80;2.80;;;;;;;;;;5105312;27;21213;-59
2022/08/01 08:31:03;;;;;;;16.75;3.38;;;;;;;;;;5123799;27;20042;-59
2022/08/01 08:33:29;;;;;;;15.43;2.30;;;;;;;;;;5133530;27;20034;-60
2022/08/01 08:35:55;;;;;;;16.77;2.63;;;;;;;;;;5127332;27;20081;-59
2022/08/01 08:38:21;;;;;;;12.38;2.05;;;;;;;;;;5131915;27;20050;-60
2022/08/01 08:40:47;;;;;;;13.23;2.60;;;;;;;;;;5120622;27;20477;-59
2022/08/01 08:43:15;;;;;;;11.32;2.28;;;;;;;;;;5136083;27;20487;-59
2022/08/01 08:45:42;;;;;;;10.32;2.88;;;;;;;;;;5138088;27;20035;-59
2022/08/01 08:48:08;;;;;;;13.65;2.67;;;;;;;;;;5136285;27;20150;-59
2022/08/01 08:50:35;;;;;;;14.38;2.63;;;;;;;;;;5140314;27;20142;-59
2022/08/01 08:53:01;;;;;;;15.82;2.50;;;;;;;;;;5132273;27;20520;-59
2022/08/01 08:55:28;;;;;;;21.98;2.58;;;;;;;;;;5137047;27;21838;-59
2022/08/01 08:57:55;;;;;;;16.63;2.63;;;;;;;;;;5132785;27;20039;-59
2022/08/01 09:00:21;;;;;;;13.45;2.83;;;;;;;;;;5138139;27;20035;-59
2022/08/01 09:02:49;;;;;;;12.18;2.30;;;;;;;;;;5122582;27;20047;-59
2022/08/01 09:05:17;;;;;;;9.55;2.05;;;;;;;;;;5120444;27;20050;-59
2022/08/01 09:07:43;;;;;;;12.27;2.10;;;;;;;;;;5131022;27;20047;-59
2022/08/01 09:10:09;;;;;;;14.15;2.25;;;;;;;;;;5114967;27;20047;-60
2022/08/01 09:12:37;;;;;;;12.73;2.78;;;;;;;;;;5121212;27;20047;-60
2022/08/01 09:15:03;;;;;;;10.38;2.28;;;;;;;;;;5136993;27;20046;-61
2022/08/01 09:17:40;;;;;;;13.13;2.15;;;;;;;;;;5114087;28;20054;-59
2022/08/01 09:20:06;;;;;;;16.45;2.83;;;;;;;;;;5117614;28;20074;-59
2022/08/01 09:22:33;;;;;;;10.73;1.75;;;;;;;;;;5110396;28;20046;-60
2022/08/01 09:25:01;;;;;;;10.35;1.60;;;;;;;;;;5117594;28;20044;-60
2022/08/01 09:27:27;;;;;;;12.48;1.88;;;;;;;;;;5113653;28;20047;-60
2022/08/01 09:29:54;;;;;;;15.85;2.50;;;;;;;;;;5117889;28;20247;-60
2022/08/01 09:32:21;;;;;;;12.00;2.22;;;;;;;;;;5118754;28;20048;-60
2022/08/01 09:34:47;;;;;;;9.38;2.05;;;;;;;;;;5120371;28;20031;-60
2022/08/01 09:37:17;;;;;;;11.82;1.70;;;;;;;;;;5113521;28;20055;-60
2022/08/01 09:39:45;;;;;;;10.85;1.73;;;;;;;;;;5122076;28;20434;-60
2022/08/01 09:42:20;;;;;;;10.57;2.30;;;;;;;;;;5118970;28;20119;-60
2022/08/01 09:44:47;;;;;;;8.32;1.73;;;;;;;;;;5119842;27;20051;-60
2022/08/01 09:47:13;;;;;;;8.23;2.22;;;;;;;;;;5121085;28;20047;-60
2022/08/01 09:49:40;;;;;;;9.02;1.52;;;;;;;;;;5112622;28;20427;-60
2022/08/01 09:52:12;;;;;;;8.70;1.77;;;;;;;;;;5115862;28;20099;-60
2022/08/01 09:54:38;;;;;;;10.07;1.85;;;;;;;;;;5115262;28;20050;-60
2022/08/01 09:57:09;;;;;;;13.48;2.00;;;;;;;;;;5115701;28;20165;-60
2022/08/01 09:59:37;;;;;;;9.27;2.10;;;;;;;;;;5115939;28;20109;-59
2022/08/01 10:02:04;;;;;;;5.63;1.50;;;;;;;;;;5120700;27;20070;-59
2022/08/01 10:04:30;;;;;;;9.23;1.45;;;;;;;;;;5119298;27;20046;-59
2022/08/01 10:07:05;;;;;;;7.88;1.73;;;;;;;;;;5117175;27;20550;-59
2022/08/01 10:09:32;;;;;;;8.73;1.75;;;;;;;;;;5122596;27;20035;-59
2022/08/01 10:11:59;;;;;;;7.53;1.80;;;;;;;;;;5112968;27;20047;-62
2022/08/01 10:14:26;;;;;;;11.95;1.83;;;;;;;;;;5115315;27;20031;-60
2022/08/01 10:16:53;;;;;;;16.25;2.30;;;;;;;;;;5131558;27;20066;-60
2022/08/01 10:19:21;;;;;;;9.02;1.75;;;;;;;;;;5127429;27;20950;-60
2022/08/01 10:21:50;;;;;;;10.38;2.13;;;;;;;;;;5131408;27;20066;-62
2022/08/01 10:24:17;;;;;;;10.88;1.50;;;;;;;;;;5129083;27;20068;-58
2022/08/01 10:26:43;;;;;;;10.73;1.77;;;;;;;;;;5114457;27;20063;-58
2022/08/01 10:29:10;;;;;;;8.32;1.92;;;;;;;;;;5113045;27;20545;-58
2022/08/01 10:31:37;;;;;;;7.50;1.55;;;;;;;;;;5117669;27;20492;-58
2022/08/01 10:34:05;;;;;;;8.13;1.30;;;;;;;;;;5129902;27;20042;-57
2022/08/01 10:36:32;;;;;;;7.28;1.60;;;;;;;;;;5129322;27;20047;-57
2022/08/01 10:38:59;;;;;;;9.73;1.90;;;;;;;;;;5129920;27;20042;-60
2022/08/01 10:41:26;;;;;;;10.75;1.60;;;;;;;;;;5132749;27;20378;-57
2022/08/01 10:43:52;;;;;;;8.90;1.95;;;;;;;;;;5133416;27;20045;-57
2022/08/01 10:46:19;;;;;;;8.15;1.80;;;;;;;;;;5134496;27;20119;-57
2022/08/01 10:48:50;;;;;;;6.88;1.48;;;;;;;;;;5136503;27;20039;-57
2022/08/01 10:51:17;;;;;;;8.00;1.83;;;;;;;;;;5130420;27;20058;-57
2022/08/01 10:53:47;;;;;;;8.82;2.38;;;;;;;;;;5114629;27;20039;-57
2022/08/01 10:56:13;;;;;;;10.80;2.00;;;;;;;;;;5114889;27;20049;-57
2022/08/01 10:58:42;;;;;;;8.40;1.98;;;;;;;;;;5128844;27;20031;-57
2022/08/01 11:01:15;;;;;;;5.82;1.42;;;;;;;;;;5133654;27;20055;-58
2022/08/01 11:03:42;;;;;;;7.03;1.67;;;;;;;;;;5139105;27;20027;-57
2022/08/01 11:06:16;;;;;;;11.02;2.05;;;;;;;;;;5142152;27;20053;-58
2022/08/01 11:08:43;;;;;;;7.32;1.40;;;;;;;;;;5118675;27;20091;-58
2022/08/01 11:11:09;;;;;;;7.10;1.30;;;;;;;;;;5118217;27;20061;-58
2022/08/01 11:13:56;;;;;;;6.28;1.65;;;;;;;;;;5135698;27;20039;-58
2022/08/01 11:16:27;;;;;;;9.23;1.65;;;;;;;;;;5135666;27;20038;-60
2022/08/01 11:18:53;;;;;;;12.85;1.90;;;;;;;;;;5142130;27;21317;-58
2022/08/01 11:21:19;;;;;;;11.60;2.08;;;;;;;;;;5137651;27;20063;-58
2022/08/01 11:23:51;;;;;;;9.18;1.27;;;;;;;;;;5120284;27;20402;-57
2022/08/01 11:26:18;;;;;;;9.60;1.20;;;;;;;;;;5122603;27;20046;-57
2022/08/01 11:28:46;;;;;;;8.50;1.33;;;;;;;;;;5136226;27;20042;-58
2022/08/01 11:31:14;;;;;;;7.40;1.80;;;;;;;;;;5138953;27;20042;-58
2022/08/01 11:33:41;;;;;;;6.57;1.70;;;;;;;;;;5123597;27;20085;-57
2022/08/01 11:36:11;;;;;;;6.97;1.75;;;;;;;;;;5137397;27;20502;-57
2022/08/01 11:38:38;;;;;;;9.48;1.70;;;;;;;;;;5141654;27;20034;-57
2022/08/01 11:41:15;;;;;;;10.02;1.55;;;;;;;;;;5142270;27;20043;-57
2022/08/01 11:43:57;;;;;;;9.45;1.65;;;;;;;;;;5133028;27;20516;-59
2022/08/01 11:46:42;;;;;;;6.53;1.70;;;;;;;;;;5118103;27;20043;-58
2022/08/01 11:49:24;;;;;;;7.80;1.73;;;;;;;;;;5136005;27;20050;-60
2022/08/01 11:52:01;;;;;;;6.65;1.42;;;;;;;;;;5142147;27;20090;-57
2022/08/01 11:54:29;;;;;;;6.88;1.50;;;;;;;;;;5140726;27;20039;-58
2022/08/01 11:56:57;;;;;;;8.05;1.38;;;;;;;;;;5113934;27;20039;-72
2022/08/01 11:59:23;;;;;;;6.15;1.52;;;;;;;;;;5111761;27;20139;-59
2022/08/01 12:01:49;;;;;;;7.72;1.73;;;;;;;;;;5132886;27;20031;-60
2022/08/01 12:04:15;;;;;;;8.43;1.80;;;;;;;;;;5134127;27;20086;-60
2022/08/01 12:06:42;;;;;;;9.05;1.90;;;;;;;;;;5134404;27;20407;-60
2022/08/01 12:09:18;;;;;;;11.00;1.85;;;;;;;;;;5140190;27;20046;-74
2022/08/01 12:11:44;;;;;;;8.60;1.50;;;;;;;;;;5137736;27;20042;-66
2022/08/01 12:14:16;;;;;;;8.35;2.00;;;;;;;;;;5122924;27;20039;-72
2022/08/01 12:16:48;;;;;;;12.38;2.22;;;;;;;;;;5137388;27;20043;-58
2022/08/01 12:19:19;;;;;;;7.13;1.70;;;;;;;;;;5139817;27;20240;-58
2022/08/01 12:21:46;;;;;;;7.13;1.52;;;;;;;;;;5138703;27;20039;-58
2022/08/01 12:24:12;;;;;;;4.82;1.15;;;;;;;;;;5137869;27;20049;-60
2022/08/01 12:26:40;;;;;;;6.60;1.38;;;;;;;;;;5137102;27;20050;-57
2022/08/01 12:29:07;;;;;;;7.05;1.52;;;;;;;;;;5137945;27;20057;-64
2022/08/01 12:31:34;;;;;;;6.30;1.75;;;;;;;;;;5140326;27;20488;-58
2022/08/01 12:34:27;;;;;;;9.75;1.75;;;;;;;;;;5115783;27;20446;-58
2022/08/01 12:36:53;;;;;;;;;;;;;;;;;;5139390;27;20042;-58
2022/08/01 12:39:20;;;;;;;7.88;1.60;;;;;;;;;;5138574;27;19919;-63
2022/08/01 12:41:46;;;;;;;8.90;2.10;;;;;;;;;;5117670;27;20390;-63
2022/08/01 12:44:16;;;;;;;6.50;1.40;;;;;;;;;;5123945;27;20046;-58
2022/08/01 12:46:42;;;;;;;8.02;1.63;;;;;;;;;;5131375;27;20039;-58
2022/08/01 12:49:09;;;;;;;6.38;1.38;;;;;;;;;;5126372;27;20515;-57
2022/08/01 12:51:35;;;;;;;7.35;1.50;;;;;;;;;;5128977;27;20051;-57
2022/08/01 12:54:03;;;;;;;8.07;1.50;;;;;;;;;;5129468;27;20450;-57
2022/08/01 12:56:35;;;;;;;5.95;1.42;;;;;;;;;;5109745;27;20478;-56
2022/08/01 12:59:01;;;;;;;5.85;1.40;;;;;;;;;;5110266;27;20479;-57
2022/08/01 13:01:28;;;;;;;6.85;1.73;;;;;;;;;;5110971;27;20035;-56
2022/08/01 13:04:03;;;;;;;7.90;1.45;;;;;;;;;;5110598;27;20049;-57
2022/08/01 13:06:31;;;;;;;6.28;1.30;;;;;;;;;;5131886;27;20535;-57
2022/08/01 13:09:05;;;;;;;8.75;1.42;;;;;;;;;;5139535;27;20434;-57
2022/08/01 13:11:31;;;;;;;6.65;1.52;;;;;;;;;;5130185;27;20078;-57
2022/08/01 13:13:58;;;;;;;11.80;1.50;;;;;;;;;;5131959;27;20099;-58
2022/08/01 13:16:25;;;;;;;4.70;1.33;;;;;;;;;;5134091;27;20046;-58
2022/08/01 13:18:52;;;;;;;6.55;1.83;;;;;;;;;;5127318;27;20458;-58
2022/08/01 13:21:22;;;;;;;10.57;1.70;;;;;;;;;;5128933;27;20063;-58
2022/08/01 13:24:09;;;;;;;7.28;1.40;;;;;;;;;;5132188;27;20058;-58
2022/08/01 13:26:47;;;;;;;6.40;1.33;;;;;;;;;;5122992;27;20070;-58
2022/08/01 13:29:15;;;;;;;9.02;1.77;;;;;;;;;;5124560;27;20042;-58
2022/08/01 13:31:41;;;;;;;7.38;1.15;;;;;;;;;;5126538;27;20448;-58
2022/08/01 13:34:08;;;;;;;10.27;1.55;;;;;;;;;;5124195;27;20067;-58
2022/08/01 13:36:34;;;;;;;6.30;1.55;;;;;;;;;;5123380;27;20048;-58
2022/08/01 13:41:46;;;;;;;7.40;1.52;;;;;;;;;;5130196;27;20046;-58
2022/08/01 13:44:13;;;;;;;7.55;1.52;;;;;;;;;;5113228;27;20406;-58
2022/08/01 13:46:39;;;;;;;8.18;1.98;;;;;;;;;;5133828;27;20050;-58
2022/08/01 13:49:06;;;;;;;8.25;1.50;;;;;;;;;;5136084;27;20031;-58
2022/08/01 13:51:33;;;;;;;8.55;1.52;;;;;;;;;;5135017;27;20045;-58
2022/08/01 13:53:59;;;;;;;6.38;1.17;;;;;;;;;;5141770;27;20049;-58
2022/08/01 13:56:27;;;;;;;6.28;1.35;;;;;;;;;;5120111;27;20051;-58
2022/08/01 13:58:54;;;;;;;9.38;1.48;;;;;;;;;;5133313;27;20126;-58
2022/08/01 14:01:20;;;;;;;7.10;1.25;;;;;;;;;;5142391;27;20031;-58
2022/08/01 14:03:47;;;;;;;7.68;1.45;;;;;;;;;;5141771;27;20053;-59
2022/08/01 14:06:15;;;;;;;6.47;1.00;;;;;;;;;;5139127;27;20470;-58
2022/08/01 14:08:41;;;;;;;7.03;1.15;;;;;;;;;;5133686;27;20042;-58
2022/08/01 14:11:08;;;;;;;5.72;1.50;;;;;;;;;;5140477;27;20470;-58
2022/08/01 14:13:34;;;;;;;6.15;1.10;;;;;;;;;;5138743;27;20087;-58
2022/08/01 14:16:00;;;;;;;5.13;1.17;;;;;;;;;;5125925;27;20047;-58
2022/08/01 14:18:26;;;;;;;6.32;1.20;;;;;;;;;;5142137;27;20069;-58
2022/08/01 14:20:52;;;;;;;8.02;1.27;;;;;;;;;;5140445;27;20039;-58
2022/08/01 14:23:19;;;;;;;7.65;1.52;;;;;;;;;;5123475;27;20054;-59
2022/08/01 14:25:45;;;;;;;8.25;1.52;;;;;;;;;;5126715;27;20043;-59
2022/08/01 14:28:11;;;;;;;6.00;1.30;;;;;;;;;;5124701;27;20535;-58
2022/08/01 14:30:37;;;;;;;7.20;1.30;;;;;;;;;;5135411;27;20071;-59
2022/08/01 14:33:04;;;;;;;5.28;1.08;;;;;;;;;;5129761;27;20065;-58
2022/08/01 14:35:30;;;;;;;5.53;1.38;;;;;;;;;;5117661;27;20482;-58
2022/08/01 14:37:56;;;;;;;5.53;1.20;;;;;;;;;;5137651;27;20057;-58
2022/08/01 14:40:22;;;;;;;7.63;1.27;;;;;;;;;;5141842;27;20435;-58
2022/08/01 14:42:48;;;;;;;5.18;1.23;;;;;;;;;;5136410;27;20058;-59